sensor_id;sensor_type;location;lat;lon;timestamp;temperature;humidity
9410;DHT22;4744;52.576;13.568;2022-07-25T00:02:01;18.60;1.00
9410;DHT22;4744;52.576;13.568;2022-07-25T00:04:27;18.60;1.00
9410;DHT22;4744;52.576;13.568;2022-07-25T00:06:54;18.50;1.00
9410;DHT22;4744;52.576;13.568;2022-07-25T00:09:22;18.50;1.00
9410;DHT22;4744;52.576;13.568;2022-07-25T00:11:49;18.50;1.00
9410;DHT22;4744;52.576;13.568;2022-07-25T00:14:17;18.50;1.00
9410;DHT22;4744;52.576;13.568;2022-07-25T00:16:43;18.50;1.00
9410;DHT22;4744;52.576;13.568;2022-07-25T00:19:10;18.50;1.00
9410;DHT22;4744;52.576;13.568;2022-07-25T00:21:37;18.40;1.00
9410;DHT22;4744;52.576;13.568;2022-07-25T00:24:05;18.40;1.00
9410;DHT22;4744;52.576;13.568;2022-07-25T00:26:33;18.30;1.00
9410;DHT22;4744;52.576;13.568;2022-07-25T00:29:00;18.30;1.00
9410;DHT22;4744;52.576;13.568;2022-07-25T00:31:27;18.20;1.00
9410;DHT22;4744;52.576;13.568;2022-07-25T00:33:53;18.20;1.00
9410;DHT22;4744;52.576;13.568;2022-07-25T00:36:20;18.10;1.00
9410;DHT22;4744;52.576;13.568;2022-07-25T00:38:47;18.10;1.00
9410;DHT22;4744;52.576;13.568;2022-07-25T00:41:14;18.00;1.00
9410;DHT22;4744;52.576;13.568;2022-07-25T00:43:43;18.00;1.00
9410;DHT22;4744;52.576;13.568;2022-07-25T00:46:11;18.00;1.00
9410;DHT22;4744;52.576;13.568;2022-07-25T00:48:38;17.90;1.00
9410;DHT22;4744;52.576;13.568;2022-07-25T00:51:06;17.90;1.00
9410;DHT22;4744;52.576;13.568;2022-07-25T00:53:33;17.90;1.00
9410;DHT22;4744;52.576;13.568;2022-07-25T00:56:00;17.80;1.00
9410;DHT22;4744;52.576;13.568;2022-07-25T00:58:27;17.90;1.00
9410;DHT22;4744;52.576;13.568;2022-07-25T01:00:56;17.90;1.00
9410;DHT22;4744;52.576;13.568;2022-07-25T01:03:23;17.80;1.00
9410;DHT22;4744;52.576;13.568;2022-07-25T01:05:50;17.80;1.00
9410;DHT22;4744;52.576;13.568;2022-07-25T01:08:17;17.90;1.00
9410;DHT22;4744;52.576;13.568;2022-07-25T01:10:44;17.80;1.00
9410;DHT22;4744;52.576;13.568;2022-07-25T01:13:12;17.80;1.00
9410;DHT22;4744;52.576;13.568;2022-07-25T01:15:39;17.70;1.00
9410;DHT22;4744;52.576;13.568;2022-07-25T01:18:07;17.70;1.00
9410;DHT22;4744;52.576;13.568;2022-07-25T01:20:35;17.70;1.00
9410;DHT22;4744;52.576;13.568;2022-07-25T01:23:02;17.70;1.00
9410;DHT22;4744;52.576;13.568;2022-07-25T01:25:29;17.70;1.00
9410;DHT22;4744;52.576;13.568;2022-07-25T01:27:56;17.70;1.00
9410;DHT22;4744;52.576;13.568;2022-07-25T01:30:23;17.70;1.00
9410;DHT22;4744;52.576;13.568;2022-07-25T01:32:51;17.60;1.00
9410;DHT22;4744;52.576;13.568;2022-07-25T01:35:17;17.60;1.00
9410;DHT22;4744;52.576;13.568;2022-07-25T01:37:46;17.60;1.00
9410;DHT22;4744;52.576;13.568;2022-07-25T01:40:15;17.60;1.00
9410;DHT22;4744;52.576;13.568;2022-07-25T01:42:42;17.60;1.00
9410;DHT22;4744;52.576;13.568;2022-07-25T01:45:11;17.60;1.00
9410;DHT22;4744;52.576;13.568;2022-07-25T01:47:38;17.50;1.00
9410;DHT22;4744;52.576;13.568;2022-07-25T01:50:06;17.50;1.00
9410;DHT22;4744;52.576;13.568;2022-07-25T01:52:33;17.50;1.00
9410;DHT22;4744;52.576;13.568;2022-07-25T01:55:02;17.50;1.00
9410;DHT22;4744;52.576;13.568;2022-07-25T01:57:29;17.50;1.00
9410;DHT22;4744;52.576;13.568;2022-07-25T01:59:56;17.50;1.00
9410;DHT22;4744;52.576;13.568;2022-07-25T02:02:23;17.40;1.00
9410;DHT22;4744;52.576;13.568;2022-07-25T02:04:50;17.40;1.00
9410;DHT22;4744;52.576;13.568;2022-07-25T02:07:17;17.40;1.00
9410;DHT22;4744;52.576;13.568;2022-07-25T02:09:43;17.40;1.00
9410;DHT22;4744;52.576;13.568;2022-07-25T02:12:12;17.40;1.00
9410;DHT22;4744;52.576;13.568;2022-07-25T02:14:38;17.30;1.00
9410;DHT22;4744;52.576;13.568;2022-07-25T02:17:05;17.30;1.00
9410;DHT22;4744;52.576;13.568;2022-07-25T02:19:32;17.20;1.00
9410;DHT22;4744;52.576;13.568;2022-07-25T02:21:59;17.20;1.00
9410;DHT22;4744;52.576;13.568;2022-07-25T02:24:26;17.10;1.00
9410;DHT22;4744;52.576;13.568;2022-07-25T02:26:53;17.10;1.00
9410;DHT22;4744;52.576;13.568;2022-07-25T02:29:21;17.10;1.00
9410;DHT22;4744;52.576;13.568;2022-07-25T02:31:48;17.00;1.00
9410;DHT22;4744;52.576;13.568;2022-07-25T02:34:16;17.00;1.00
9410;DHT22;4744;52.576;13.568;2022-07-25T02:36:43;17.00;1.00
9410;DHT22;4744;52.576;13.568;2022-07-25T02:39:10;16.90;1.00
9410;DHT22;4744;52.576;13.568;2022-07-25T02:41:37;16.90;1.00
9410;DHT22;4744;52.576;13.568;2022-07-25T02:44:04;16.80;1.00
9410;DHT22;4744;52.576;13.568;2022-07-25T02:46:33;16.80;1.00
9410;DHT22;4744;52.576;13.568;2022-07-25T02:49:00;16.80;1.00
9410;DHT22;4744;52.576;13.568;2022-07-25T02:51:27;16.70;1.00
9410;DHT22;4744;52.576;13.568;2022-07-25T02:53:53;16.70;1.00
9410;DHT22;4744;52.576;13.568;2022-07-25T02:56:20;16.70;1.00
9410;DHT22;4744;52.576;13.568;2022-07-25T02:58:47;16.70;1.00
9410;DHT22;4744;52.576;13.568;2022-07-25T03:01:14;16.70;1.00
9410;DHT22;4744;52.576;13.568;2022-07-25T03:03:42;16.70;1.00
9410;DHT22;4744;52.576;13.568;2022-07-25T03:06:09;16.70;1.00
9410;DHT22;4744;52.576;13.568;2022-07-25T03:08:36;16.60;1.00
9410;DHT22;4744;52.576;13.568;2022-07-25T03:11:02;16.60;1.00
9410;DHT22;4744;52.576;13.568;2022-07-25T03:13:30;16.60;1.00
9410;DHT22;4744;52.576;13.568;2022-07-25T03:15:57;16.60;1.00
9410;DHT22;4744;52.576;13.568;2022-07-25T03:18:24;16.60;1.00
9410;DHT22;4744;52.576;13.568;2022-07-25T03:20:52;16.60;1.00
9410;DHT22;4744;52.576;13.568;2022-07-25T03:23:19;16.50;1.00
9410;DHT22;4744;52.576;13.568;2022-07-25T03:25:46;16.50;1.00
9410;DHT22;4744;52.576;13.568;2022-07-25T03:28:13;16.50;1.00
9410;DHT22;4744;52.576;13.568;2022-07-25T03:30:40;16.50;1.00
9410;DHT22;4744;52.576;13.568;2022-07-25T03:33:06;16.50;1.00
9410;DHT22;4744;52.576;13.568;2022-07-25T03:35:33;16.50;1.00
9410;DHT22;4744;52.576;13.568;2022-07-25T03:38:03;16.50;1.00
9410;DHT22;4744;52.576;13.568;2022-07-25T03:40:30;16.50;1.00
9410;DHT22;4744;52.576;13.568;2022-07-25T03:42:57;16.50;1.00
9410;DHT22;4744;52.576;13.568;2022-07-25T03:45:24;16.50;1.00
9410;DHT22;4744;52.576;13.568;2022-07-25T03:47:51;16.50;1.00
9410;DHT22;4744;52.576;13.568;2022-07-25T03:50:18;16.50;1.00
9410;DHT22;4744;52.576;13.568;2022-07-25T03:52:45;16.50;1.00
9410;DHT22;4744;52.576;13.568;2022-07-25T03:55:13;16.50;1.00
9410;DHT22;4744;52.576;13.568;2022-07-25T03:57:40;16.60;1.00
9410;DHT22;4744;52.576;13.568;2022-07-25T04:00:08;16.60;1.00
9410;DHT22;4744;52.576;13.568;2022-07-25T04:02:35;16.60;1.00
9410;DHT22;4744;52.576;13.568;2022-07-25T04:05:03;16.70;1.00
9410;DHT22;4744;52.576;13.568;2022-07-25T04:07:30;16.70;1.00
9410;DHT22;4744;52.576;13.568;2022-07-25T04:09:57;16.70;1.00
9410;DHT22;4744;52.576;13.568;2022-07-25T04:12:25;16.70;1.00
9410;DHT22;4744;52.576;13.568;2022-07-25T04:14:52;16.80;1.00
9410;DHT22;4744;52.576;13.568;2022-07-25T04:17:19;16.80;1.00
9410;DHT22;4744;52.576;13.568;2022-07-25T04:19:46;16.90;1.00
9410;DHT22;4744;52.576;13.568;2022-07-25T04:22:13;16.90;1.00
9410;DHT22;4744;52.576;13.568;2022-07-25T04:24:39;17.00;1.00
9410;DHT22;4744;52.576;13.568;2022-07-25T04:27:06;17.00;1.00
9410;DHT22;4744;52.576;13.568;2022-07-25T04:29:34;17.10;1.00
9410;DHT22;4744;52.576;13.568;2022-07-25T04:32:01;17.10;1.00
9410;DHT22;4744;52.576;13.568;2022-07-25T04:34:28;17.20;1.00
9410;DHT22;4744;52.576;13.568;2022-07-25T04:36:55;17.20;1.00
9410;DHT22;4744;52.576;13.568;2022-07-25T04:39:22;17.30;1.00
9410;DHT22;4744;52.576;13.568;2022-07-25T04:41:48;17.40;1.00
9410;DHT22;4744;52.576;13.568;2022-07-25T04:44:15;17.50;1.00
9410;DHT22;4744;52.576;13.568;2022-07-25T04:46:44;17.60;1.00
9410;DHT22;4744;52.576;13.568;2022-07-25T04:49:10;17.70;1.00
9410;DHT22;4744;52.576;13.568;2022-07-25T04:51:37;17.70;1.00
9410;DHT22;4744;52.576;13.568;2022-07-25T04:54:04;17.80;1.00
9410;DHT22;4744;52.576;13.568;2022-07-25T04:56:31;18.00;1.00
9410;DHT22;4744;52.576;13.568;2022-07-25T04:58:58;18.10;1.00
9410;DHT22;4744;52.576;13.568;2022-07-25T05:01:25;18.20;1.00
9410;DHT22;4744;52.576;13.568;2022-07-25T05:03:53;18.30;1.00
9410;DHT22;4744;52.576;13.568;2022-07-25T05:06:20;18.40;1.00
9410;DHT22;4744;52.576;13.568;2022-07-25T05:08:47;18.50;1.00
9410;DHT22;4744;52.576;13.568;2022-07-25T05:11:13;18.60;1.00
9410;DHT22;4744;52.576;13.568;2022-07-25T05:13:40;18.80;1.00
9410;DHT22;4744;52.576;13.568;2022-07-25T05:16:07;19.00;1.00
9410;DHT22;4744;52.576;13.568;2022-07-25T05:18:34;19.10;1.00
9410;DHT22;4744;52.576;13.568;2022-07-25T05:21:02;19.20;1.00
9410;DHT22;4744;52.576;13.568;2022-07-25T05:23:29;19.40;1.00
9410;DHT22;4744;52.576;13.568;2022-07-25T05:25:56;19.50;1.00
9410;DHT22;4744;52.576;13.568;2022-07-25T05:28:23;19.70;1.00
9410;DHT22;4744;52.576;13.568;2022-07-25T05:30:49;19.90;1.00
9410;DHT22;4744;52.576;13.568;2022-07-25T05:33:16;20.00;1.00
9410;DHT22;4744;52.576;13.568;2022-07-25T05:35:43;20.20;1.00
9410;DHT22;4744;52.576;13.568;2022-07-25T05:38:11;20.40;1.00
9410;DHT22;4744;52.576;13.568;2022-07-25T05:40:38;20.60;1.00
9410;DHT22;4744;52.576;13.568;2022-07-25T05:43:05;20.80;1.00
9410;DHT22;4744;52.576;13.568;2022-07-25T05:45:32;20.90;1.00
9410;DHT22;4744;52.576;13.568;2022-07-25T05:47:58;21.10;1.00
9410;DHT22;4744;52.576;13.568;2022-07-25T05:50:25;21.20;1.00
9410;DHT22;4744;52.576;13.568;2022-07-25T05:52:52;21.40;1.00
9410;DHT22;4744;52.576;13.568;2022-07-25T05:55:20;21.50;1.00
9410;DHT22;4744;52.576;13.568;2022-07-25T05:57:47;21.70;1.00
9410;DHT22;4744;52.576;13.568;2022-07-25T06:00:14;21.90;1.00
9410;DHT22;4744;52.576;13.568;2022-07-25T06:02:41;22.00;1.00
9410;DHT22;4744;52.576;13.568;2022-07-25T06:05:08;22.10;1.00
9410;DHT22;4744;52.576;13.568;2022-07-25T06:07:35;22.30;1.00
9410;DHT22;4744;52.576;13.568;2022-07-25T06:10:02;22.40;1.00
9410;DHT22;4744;52.576;13.568;2022-07-25T06:12:30;22.60;1.00
9410;DHT22;4744;52.576;13.568;2022-07-25T06:14:58;22.70;1.00
9410;DHT22;4744;52.576;13.568;2022-07-25T06:17:25;22.80;1.00
9410;DHT22;4744;52.576;13.568;2022-07-25T06:19:52;22.90;1.00
9410;DHT22;4744;52.576;13.568;2022-07-25T06:22:19;23.10;1.00
9410;DHT22;4744;52.576;13.568;2022-07-25T06:24:46;23.20;1.00
9410;DHT22;4744;52.576;13.568;2022-07-25T06:27:13;23.30;1.00
9410;DHT22;4744;52.576;13.568;2022-07-25T06:29:41;23.40;1.00
9410;DHT22;4744;52.576;13.568;2022-07-25T06:32:07;23.50;1.00
9410;DHT22;4744;52.576;13.568;2022-07-25T06:34:34;23.60;1.00
9410;DHT22;4744;52.576;13.568;2022-07-25T06:37:01;23.70;1.00
9410;DHT22;4744;52.576;13.568;2022-07-25T06:39:28;23.80;1.00
9410;DHT22;4744;52.576;13.568;2022-07-25T06:41:56;23.90;1.00
9410;DHT22;4744;52.576;13.568;2022-07-25T06:44:24;24.10;1.00
9410;DHT22;4744;52.576;13.568;2022-07-25T06:46:53;24.20;1.00
9410;DHT22;4744;52.576;13.568;2022-07-25T06:49:19;24.30;1.00
9410;DHT22;4744;52.576;13.568;2022-07-25T06:51:46;24.40;1.00
9410;DHT22;4744;52.576;13.568;2022-07-25T06:54:13;24.50;1.00
9410;DHT22;4744;52.576;13.568;2022-07-25T06:56:43;24.50;1.00
9410;DHT22;4744;52.576;13.568;2022-07-25T06:59:10;24.60;1.00
9410;DHT22;4744;52.576;13.568;2022-07-25T07:01:37;24.70;1.00
9410;DHT22;4744;52.576;13.568;2022-07-25T07:04:05;24.80;1.00
9410;DHT22;4744;52.576;13.568;2022-07-25T07:08:57;25.00;1.00
9410;DHT22;4744;52.576;13.568;2022-07-25T07:11:24;25.00;1.00
9410;DHT22;4744;52.576;13.568;2022-07-25T07:13:51;25.20;1.00
9410;DHT22;4744;52.576;13.568;2022-07-25T07:16:18;25.20;1.00
9410;DHT22;4744;52.576;13.568;2022-07-25T07:18:44;25.30;1.00
9410;DHT22;4744;52.576;13.568;2022-07-25T07:21:13;25.50;1.00
9410;DHT22;4744;52.576;13.568;2022-07-25T07:23:39;25.60;1.00
9410;DHT22;4744;52.576;13.568;2022-07-25T07:26:07;25.60;1.00
9410;DHT22;4744;52.576;13.568;2022-07-25T07:28:33;25.70;1.00
9410;DHT22;4744;52.576;13.568;2022-07-25T07:31:00;25.80;1.00
9410;DHT22;4744;52.576;13.568;2022-07-25T07:33:27;25.90;1.00
9410;DHT22;4744;52.576;13.568;2022-07-25T07:35:54;26.00;1.00
9410;DHT22;4744;52.576;13.568;2022-07-25T07:38:22;26.10;1.00
9410;DHT22;4744;52.576;13.568;2022-07-25T07:40:49;26.20;1.00
9410;DHT22;4744;52.576;13.568;2022-07-25T07:43:16;26.30;1.00
9410;DHT22;4744;52.576;13.568;2022-07-25T07:45:43;26.50;1.00
9410;DHT22;4744;52.576;13.568;2022-07-25T07:48:10;26.60;1.00
9410;DHT22;4744;52.576;13.568;2022-07-25T07:50:37;26.70;1.00
9410;DHT22;4744;52.576;13.568;2022-07-25T07:53:04;26.80;1.00
9410;DHT22;4744;52.576;13.568;2022-07-25T07:55:33;26.90;1.00
9410;DHT22;4744;52.576;13.568;2022-07-25T07:58:09;27.00;1.00
9410;DHT22;4744;52.576;13.568;2022-07-25T08:00:36;27.10;1.00
9410;DHT22;4744;52.576;13.568;2022-07-25T08:03:05;27.20;1.00
9410;DHT22;4744;52.576;13.568;2022-07-25T08:05:36;27.20;1.00
9410;DHT22;4744;52.576;13.568;2022-07-25T08:08:04;27.30;1.00
9410;DHT22;4744;52.576;13.568;2022-07-25T08:10:37;27.50;1.00
9410;DHT22;4744;52.576;13.568;2022-07-25T08:13:11;27.60;1.00
9410;DHT22;4744;52.576;13.568;2022-07-25T08:15:40;27.70;1.00
9410;DHT22;4744;52.576;13.568;2022-07-25T08:18:07;27.80;1.00
9410;DHT22;4744;52.576;13.568;2022-07-25T08:20:34;28.00;1.00
9410;DHT22;4744;52.576;13.568;2022-07-25T08:23:01;28.00;1.00
9410;DHT22;4744;52.576;13.568;2022-07-25T08:25:29;28.20;1.00
9410;DHT22;4744;52.576;13.568;2022-07-25T08:28:03;28.10;1.00
9410;DHT22;4744;52.576;13.568;2022-07-25T08:30:31;28.10;1.00
9410;DHT22;4744;52.576;13.568;2022-07-25T08:33:00;28.10;1.00
9410;DHT22;4744;52.576;13.568;2022-07-25T08:35:28;28.10;1.00
9410;DHT22;4744;52.576;13.568;2022-07-25T08:37:56;28.20;1.00
9410;DHT22;4744;52.576;13.568;2022-07-25T08:40:24;28.30;1.00
9410;DHT22;4744;52.576;13.568;2022-07-25T08:42:52;28.40;1.00
9410;DHT22;4744;52.576;13.568;2022-07-25T08:45:22;28.50;1.00
9410;DHT22;4744;52.576;13.568;2022-07-25T08:47:50;28.60;1.00
9410;DHT22;4744;52.576;13.568;2022-07-25T08:50:21;28.60;1.00
9410;DHT22;4744;52.576;13.568;2022-07-25T08:52:49;28.60;1.00
9410;DHT22;4744;52.576;13.568;2022-07-25T08:55:18;28.70;1.00
9410;DHT22;4744;52.576;13.568;2022-07-25T08:57:46;28.80;1.00
9410;DHT22;4744;52.576;13.568;2022-07-25T09:00:16;28.90;1.00
9410;DHT22;4744;52.576;13.568;2022-07-25T09:02:50;29.00;1.00
9410;DHT22;4744;52.576;13.568;2022-07-25T09:05:17;29.10;1.00
9410;DHT22;4744;52.576;13.568;2022-07-25T09:07:44;29.20;1.00
9410;DHT22;4744;52.576;13.568;2022-07-25T09:10:13;29.30;1.00
9410;DHT22;4744;52.576;13.568;2022-07-25T09:12:40;29.20;1.00
9410;DHT22;4744;52.576;13.568;2022-07-25T09:15:08;29.20;1.00
9410;DHT22;4744;52.576;13.568;2022-07-25T09:17:35;29.40;1.00
9410;DHT22;4744;52.576;13.568;2022-07-25T09:20:04;29.40;1.00
9410;DHT22;4744;52.576;13.568;2022-07-25T09:22:42;29.50;1.00
9410;DHT22;4744;52.576;13.568;2022-07-25T09:25:19;29.60;1.00
9410;DHT22;4744;52.576;13.568;2022-07-25T09:27:46;29.60;1.00
9410;DHT22;4744;52.576;13.568;2022-07-25T09:30:14;29.60;1.00
9410;DHT22;4744;52.576;13.568;2022-07-25T09:32:41;29.80;1.00
9410;DHT22;4744;52.576;13.568;2022-07-25T09:35:10;29.90;1.00
9410;DHT22;4744;52.576;13.568;2022-07-25T09:37:37;30.10;1.00
9410;DHT22;4744;52.576;13.568;2022-07-25T09:40:12;30.10;1.00
9410;DHT22;4744;52.576;13.568;2022-07-25T09:42:39;30.20;1.00
9410;DHT22;4744;52.576;13.568;2022-07-25T09:45:09;30.30;1.00
9410;DHT22;4744;52.576;13.568;2022-07-25T09:47:47;30.30;1.00
9410;DHT22;4744;52.576;13.568;2022-07-25T09:50:16;30.40;1.00
9410;DHT22;4744;52.576;13.568;2022-07-25T09:52:44;30.50;1.00
9410;DHT22;4744;52.576;13.568;2022-07-25T09:55:11;30.60;1.00
9410;DHT22;4744;52.576;13.568;2022-07-25T09:57:38;30.70;1.00
9410;DHT22;4744;52.576;13.568;2022-07-25T10:00:07;30.90;1.00
9410;DHT22;4744;52.576;13.568;2022-07-25T10:02:40;31.10;1.00
9410;DHT22;4744;52.576;13.568;2022-07-25T10:05:12;31.10;1.00
9410;DHT22;4744;52.576;13.568;2022-07-25T10:07:45;31.00;1.00
9410;DHT22;4744;52.576;13.568;2022-07-25T10:10:21;31.10;1.00
9410;DHT22;4744;52.576;13.568;2022-07-25T10:13:01;31.30;1.00
9410;DHT22;4744;52.576;13.568;2022-07-25T10:15:39;31.40;1.00
9410;DHT22;4744;52.576;13.568;2022-07-25T10:18:06;31.50;1.00
9410;DHT22;4744;52.576;13.568;2022-07-25T10:20:34;31.60;1.00
9410;DHT22;4744;52.576;13.568;2022-07-25T10:23:02;31.80;1.00
9410;DHT22;4744;52.576;13.568;2022-07-25T10:25:29;31.90;1.00
9410;DHT22;4744;52.576;13.568;2022-07-25T10:27:59;32.10;1.00
9410;DHT22;4744;52.576;13.568;2022-07-25T10:30:34;32.10;1.00
9410;DHT22;4744;52.576;13.568;2022-07-25T10:33:02;32.20;1.00
9410;DHT22;4744;52.576;13.568;2022-07-25T10:35:29;32.40;1.00
9410;DHT22;4744;52.576;13.568;2022-07-25T10:37:57;32.50;1.00
9410;DHT22;4744;52.576;13.568;2022-07-25T10:40:36;32.60;1.00
9410;DHT22;4744;52.576;13.568;2022-07-25T10:43:08;32.80;1.00
9410;DHT22;4744;52.576;13.568;2022-07-25T10:45:43;33.00;1.00
9410;DHT22;4744;52.576;13.568;2022-07-25T10:48:18;33.10;1.00
9410;DHT22;4744;52.576;13.568;2022-07-25T10:50:47;33.20;1.00
9410;DHT22;4744;52.576;13.568;2022-07-25T10:53:14;33.40;1.00
9410;DHT22;4744;52.576;13.568;2022-07-25T10:55:42;33.50;1.00
9410;DHT22;4744;52.576;13.568;2022-07-25T10:58:12;33.70;1.00
9410;DHT22;4744;52.576;13.568;2022-07-25T11:00:42;33.80;1.00
9410;DHT22;4744;52.576;13.568;2022-07-25T11:03:12;33.90;1.00
9410;DHT22;4744;52.576;13.568;2022-07-25T11:05:46;34.00;1.00
9410;DHT22;4744;52.576;13.568;2022-07-25T11:08:13;34.00;1.00
9410;DHT22;4744;52.576;13.568;2022-07-25T11:10:49;34.20;1.00
9410;DHT22;4744;52.576;13.568;2022-07-25T11:13:16;34.30;1.00
9410;DHT22;4744;52.576;13.568;2022-07-25T11:15:43;34.50;1.00
9410;DHT22;4744;52.576;13.568;2022-07-25T11:18:10;34.60;1.00
9410;DHT22;4744;52.576;13.568;2022-07-25T11:20:37;34.70;1.00
9410;DHT22;4744;52.576;13.568;2022-07-25T11:23:04;34.80;1.00
9410;DHT22;4744;52.576;13.568;2022-07-25T11:25:31;34.80;1.00
9410;DHT22;4744;52.576;13.568;2022-07-25T11:28:00;34.80;1.00
9410;DHT22;4744;52.576;13.568;2022-07-25T11:30:28;34.80;1.00
9410;DHT22;4744;52.576;13.568;2022-07-25T11:32:57;34.90;1.00
9410;DHT22;4744;52.576;13.568;2022-07-25T11:35:27;35.00;1.00
9410;DHT22;4744;52.576;13.568;2022-07-25T11:37:55;35.10;1.00
9410;DHT22;4744;52.576;13.568;2022-07-25T11:40:22;35.10;1.00
9410;DHT22;4744;52.576;13.568;2022-07-25T11:42:51;35.00;1.00
9410;DHT22;4744;52.576;13.568;2022-07-25T11:45:22;35.00;1.00
9410;DHT22;4744;52.576;13.568;2022-07-25T11:48:01;34.90;1.00
9410;DHT22;4744;52.576;13.568;2022-07-25T11:50:29;34.60;1.00
9410;DHT22;4744;52.576;13.568;2022-07-25T11:52:58;34.50;1.00
9410;DHT22;4744;52.576;13.568;2022-07-25T11:55:28;34.60;1.00
9410;DHT22;4744;52.576;13.568;2022-07-25T11:57:58;34.60;1.00
9410;DHT22;4744;52.576;13.568;2022-07-25T12:00:28;34.50;1.00
9410;DHT22;4744;52.576;13.568;2022-07-25T12:03:05;34.50;1.00
9410;DHT22;4744;52.576;13.568;2022-07-25T12:05:32;34.60;1.00
9410;DHT22;4744;52.576;13.568;2022-07-25T12:08:09;34.80;1.00
9410;DHT22;4744;52.576;13.568;2022-07-25T12:10:36;35.00;1.00
9410;DHT22;4744;52.576;13.568;2022-07-25T12:13:04;35.20;1.00
9410;DHT22;4744;52.576;13.568;2022-07-25T12:15:36;35.10;1.00
9410;DHT22;4744;52.576;13.568;2022-07-25T12:18:04;35.00;1.00
9410;DHT22;4744;52.576;13.568;2022-07-25T12:20:31;35.00;1.00
9410;DHT22;4744;52.576;13.568;2022-07-25T12:23:00;34.90;1.00
9410;DHT22;4744;52.576;13.568;2022-07-25T12:25:29;35.00;1.00
9410;DHT22;4744;52.576;13.568;2022-07-25T12:27:56;35.00;1.00
9410;DHT22;4744;52.576;13.568;2022-07-25T12:30:24;35.20;1.00
9410;DHT22;4744;52.576;13.568;2022-07-25T12:32:52;35.20;1.00
9410;DHT22;4744;52.576;13.568;2022-07-25T12:35:19;35.30;1.00
9410;DHT22;4744;52.576;13.568;2022-07-25T12:37:47;35.20;1.00
9410;DHT22;4744;52.576;13.568;2022-07-25T12:40:14;35.30;1.00
9410;DHT22;4744;52.576;13.568;2022-07-25T12:42:42;35.30;1.00
9410;DHT22;4744;52.576;13.568;2022-07-25T12:45:10;35.30;1.00
9410;DHT22;4744;52.576;13.568;2022-07-25T12:47:37;35.10;1.00
9410;DHT22;4744;52.576;13.568;2022-07-25T12:50:06;34.90;1.00
9410;DHT22;4744;52.576;13.568;2022-07-25T12:52:33;34.60;1.00
9410;DHT22;4744;52.576;13.568;2022-07-25T12:55:00;34.50;1.00
9410;DHT22;4744;52.576;13.568;2022-07-25T12:57:27;34.50;1.00
9410;DHT22;4744;52.576;13.568;2022-07-25T12:59:54;34.70;1.00
9410;DHT22;4744;52.576;13.568;2022-07-25T13:02:20;34.70;1.00
9410;DHT22;4744;52.576;13.568;2022-07-25T13:04:47;34.70;1.00
9410;DHT22;4744;52.576;13.568;2022-07-25T13:07:15;34.60;1.00
9410;DHT22;4744;52.576;13.568;2022-07-25T13:09:42;34.60;1.00
9410;DHT22;4744;52.576;13.568;2022-07-25T13:12:09;34.60;1.00
9410;DHT22;4744;52.576;13.568;2022-07-25T13:14:36;34.70;1.00
9410;DHT22;4744;52.576;13.568;2022-07-25T13:17:03;34.60;1.00
9410;DHT22;4744;52.576;13.568;2022-07-25T13:19:29;34.60;1.00
9410;DHT22;4744;52.576;13.568;2022-07-25T13:21:56;34.60;1.00
9410;DHT22;4744;52.576;13.568;2022-07-25T13:24:25;34.70;1.00
9410;DHT22;4744;52.576;13.568;2022-07-25T13:26:51;34.70;1.00
9410;DHT22;4744;52.576;13.568;2022-07-25T13:29:18;34.80;1.00
9410;DHT22;4744;52.576;13.568;2022-07-25T13:31:45;34.80;1.00
9410;DHT22;4744;52.576;13.568;2022-07-25T13:34:12;34.80;1.00
9410;DHT22;4744;52.576;13.568;2022-07-25T13:36:39;34.70;1.00
9410;DHT22;4744;52.576;13.568;2022-07-25T13:39:05;34.70;1.00
9410;DHT22;4744;52.576;13.568;2022-07-25T13:41:34;34.80;1.00
9410;DHT22;4744;52.576;13.568;2022-07-25T13:44:00;34.80;1.00
9410;DHT22;4744;52.576;13.568;2022-07-25T13:46:27;34.80;1.00
9410;DHT22;4744;52.576;13.568;2022-07-25T13:48:54;34.70;1.00
9410;DHT22;4744;52.576;13.568;2022-07-25T13:51:21;34.60;1.00
9410;DHT22;4744;52.576;13.568;2022-07-25T13:53:48;34.60;1.00
9410;DHT22;4744;52.576;13.568;2022-07-25T13:56:15;34.50;1.00
9410;DHT22;4744;52.576;13.568;2022-07-25T13:58:43;34.50;1.00
9410;DHT22;4744;52.576;13.568;2022-07-25T14:01:10;34.50;1.00
9410;DHT22;4744;52.576;13.568;2022-07-25T14:03:37;34.60;1.00
9410;DHT22;4744;52.576;13.568;2022-07-25T14:06:07;34.60;1.00
9410;DHT22;4744;52.576;13.568;2022-07-25T14:08:34;34.80;1.00
9410;DHT22;4744;52.576;13.568;2022-07-25T14:11:01;34.90;1.00
9410;DHT22;4744;52.576;13.568;2022-07-25T14:13:30;34.90;1.00
9410;DHT22;4744;52.576;13.568;2022-07-25T14:15:58;35.10;1.00
9410;DHT22;4744;52.576;13.568;2022-07-25T14:18:25;35.20;1.00
9410;DHT22;4744;52.576;13.568;2022-07-25T14:20:52;35.30;1.00
9410;DHT22;4744;52.576;13.568;2022-07-25T14:23:19;35.50;1.00
9410;DHT22;4744;52.576;13.568;2022-07-25T14:25:46;35.40;1.00
9410;DHT22;4744;52.576;13.568;2022-07-25T14:28:13;35.30;1.00
9410;DHT22;4744;52.576;13.568;2022-07-25T14:30:40;35.30;1.00
9410;DHT22;4744;52.576;13.568;2022-07-25T14:33:08;35.30;1.00
9410;DHT22;4744;52.576;13.568;2022-07-25T14:35:34;35.30;1.00
9410;DHT22;4744;52.576;13.568;2022-07-25T14:38:02;35.30;1.00
9410;DHT22;4744;52.576;13.568;2022-07-25T14:40:30;35.30;1.00
9410;DHT22;4744;52.576;13.568;2022-07-25T14:42:57;35.00;1.00
9410;DHT22;4744;52.576;13.568;2022-07-25T14:45:24;34.90;1.00
9410;DHT22;4744;52.576;13.568;2022-07-25T14:47:51;34.90;1.00
9410;DHT22;4744;52.576;13.568;2022-07-25T14:50:19;34.90;1.00
9410;DHT22;4744;52.576;13.568;2022-07-25T14:52:47;34.80;1.00
9410;DHT22;4744;52.576;13.568;2022-07-25T14:55:14;34.80;1.00
9410;DHT22;4744;52.576;13.568;2022-07-25T14:57:43;34.80;1.00
9410;DHT22;4744;52.576;13.568;2022-07-25T15:00:11;34.80;1.00
9410;DHT22;4744;52.576;13.568;2022-07-25T15:02:38;34.90;1.00
9410;DHT22;4744;52.576;13.568;2022-07-25T15:05:05;34.80;1.00
9410;DHT22;4744;52.576;13.568;2022-07-25T15:07:35;34.60;1.00
9410;DHT22;4744;52.576;13.568;2022-07-25T15:10:02;34.50;1.00
9410;DHT22;4744;52.576;13.568;2022-07-25T15:12:29;34.30;1.00
9410;DHT22;4744;52.576;13.568;2022-07-25T15:14:56;34.20;1.00
9410;DHT22;4744;52.576;13.568;2022-07-25T15:17:23;34.00;1.00
9410;DHT22;4744;52.576;13.568;2022-07-25T15:19:50;33.90;1.00
9410;DHT22;4744;52.576;13.568;2022-07-25T15:22:16;33.90;1.00
9410;DHT22;4744;52.576;13.568;2022-07-25T15:24:45;33.80;1.00
9410;DHT22;4744;52.576;13.568;2022-07-25T15:27:11;33.80;1.00
9410;DHT22;4744;52.576;13.568;2022-07-25T15:29:38;33.70;1.00
9410;DHT22;4744;52.576;13.568;2022-07-25T15:32:05;33.70;1.00
9410;DHT22;4744;52.576;13.568;2022-07-25T15:34:34;33.80;1.00
9410;DHT22;4744;52.576;13.568;2022-07-25T15:37:00;33.80;1.00
9410;DHT22;4744;52.576;13.568;2022-07-25T15:39:27;33.90;1.00
9410;DHT22;4744;52.576;13.568;2022-07-25T15:41:55;33.90;1.00
9410;DHT22;4744;52.576;13.568;2022-07-25T15:44:22;33.90;1.00
9410;DHT22;4744;52.576;13.568;2022-07-25T15:46:50;33.90;1.00
9410;DHT22;4744;52.576;13.568;2022-07-25T15:49:16;33.90;1.00
9410;DHT22;4744;52.576;13.568;2022-07-25T15:51:43;34.00;1.00
9410;DHT22;4744;52.576;13.568;2022-07-25T15:54:10;33.90;1.00
9410;DHT22;4744;52.576;13.568;2022-07-25T15:56:38;34.00;1.00
9410;DHT22;4744;52.576;13.568;2022-07-25T15:59:07;34.10;1.00
9410;DHT22;4744;52.576;13.568;2022-07-25T16:01:33;34.20;1.00
9410;DHT22;4744;52.576;13.568;2022-07-25T16:04:00;34.50;1.00
9410;DHT22;4744;52.576;13.568;2022-07-25T16:06:27;34.60;1.00
9410;DHT22;4744;52.576;13.568;2022-07-25T16:08:54;34.70;1.00